• Join FlightAware (Why Join?)
  • Login
  • US Flag 
03:16AM EDT


 

Airport Tracker/Info


-or-


 

Live Flight TrackerFlight Track Log ✈ SKW4728 ✈ 02-May-2013 ✈ KMFR - KSLC

Flight Track Log - Related Links

Times and Time Zones

All times are in EDT time to prevent confusion due to time zone crossing. See the SKW4728 flight status page for this flight to view local times or setup timezone preferences in your user account.

Time Position Orientation Groundspeed Altitude Reporting Facility
EDT Latitude Longitude Course Direction KTS MPH feet Rate Location/Type
04:20PM 42.4611 -122.8397 111° Southeast 202 232 5,100  Level Seattle Center
04:21PM 42.4856 -122.7719 64° Northeast 233 268 7,800 2,160 Climbing Seattle Center
04:22PM 42.3757 -122.5816 111° Southeast  Level FlightAware Approximate
04:22PM 42.4378 -122.6994 132° Southeast 264 304 9,600  Level Seattle Center
04:23PM 42.3368 -122.4304 109° East  Level FlightAware Approximate
04:23PM 42.4008 -122.6022 117° Southeast 297 342 11,800  Level Seattle Center
04:24PM 42.3013 -122.2779 111° Southeast  Level FlightAware Approximate
04:24PM 42.3456 -122.5161 131° Southeast 304 350 14,100  Level Seattle Center
04:25PM 42.2595 -122.1283 111° Southeast  Level FlightAware Approximate
04:25PM 42.2861 -122.4283 132° Southeast 316 364 16,000  Level Seattle Center
04:26PM 42.2200 -122.3419 136° Southeast 330 380 17,700 1,500 Climbing Seattle Center
04:27PM 42.1508 -122.2531 136° Southeast 343 395 19,100 1,500 Climbing Seattle Center
04:28PM 42.0678 -122.1447 136° Southeast 347 399 20,800 1,560 Climbing Seattle Center
04:29PM 41.9964 -122.0550 137° Southeast 359 413 22,300 1,320 Climbing Seattle Center
04:30PM 41.9231 -121.9639 137° Southeast 367 422 23,500 1,080 Climbing Seattle Center
04:31PM 41.8472 -121.8694 137° Southeast 373 429 24,600 1,080 Climbing Seattle Center
04:32PM 41.7689 -121.7725 137° Southeast 380 437 25,700 960 Climbing Seattle Center
04:33PM 41.6889 -121.6739 137° Southeast 388 447 26,600 900 Climbing Seattle Center
04:34PM 41.6078 -121.5733 137° Southeast 395 455 27,600 900 Climbing Seattle Center
04:35PM 41.5253 -121.4722 137° Southeast 401 461 28,500 780 Climbing Seattle Center
04:36PM 41.4406 -121.3689 138° Southeast 409 471 29,300 840 Climbing Seattle Center
04:37PM 41.4158 -121.1967 101° East 408 470 30,300 840 Climbing Seattle Center
04:38PM 41.4075 -121.0489 94° East 402 463 31,100 600 Climbing Seattle Center
04:39PM 41.3992 -120.8972 94° East 409 471 31,600 300 Climbing Seattle Center
04:41PM 41.3941 -120.7280 92° East  Level Estimated
04:44PM 41.3531 -120.1967 93° East 435 501 33,000  Level Salt Lake Center
04:44PM 41.3489 -120.1225 94° East 442 509 33,000  Level Seattle Center
04:45PM 41.3369 -119.9586 97° East 446 513 33,000  Level Seattle Center
04:46PM 41.3128 -119.9706 107° East  Level FlightAware Approximate
04:46PM 41.3244 -119.7950 96° East 447 514 33,000  Level Seattle Center
04:47PM 41.3131 -119.6289 95° East 450 518 33,000  Level Seattle Center
04:48PM 41.3577 -119.6988 92° East  Level Estimated
04:48PM 41.3014 -119.4611 95° East 455 524 33,000  Level Seattle Center
04:49PM 41.3517 -119.5519 93° East  Level Estimated
04:49PM 41.2903 -119.3422 97° East 454 522 33,000  Level Salt Lake Center
04:50PM 41.2761 -119.1553 96° East 456 525 33,000  Level Salt Lake Center
04:51PM 41.2639 -118.9969 96° East 453 521 33,000  Level Salt Lake Center
04:52PM 41.2492 -118.8100 96° East 454 522 33,000  Level Salt Lake Center
04:53PM 41.2767 -118.9426 94° East  Level Estimated
04:53PM 41.2367 -118.6533 96° East 449 517 33,000  Level Salt Lake Center
04:54PM 41.2636 -118.7967 97° East  Level FlightAware Approximate
04:54PM 41.2236 -118.4975 96° East 445 512 33,000  Level Salt Lake Center
04:55PM 41.2083 -118.3147 96° East 445 512 33,000  Level Salt Lake Center
04:56PM 41.1936 -118.1594 97° East 444 511 33,000  Level Salt Lake Center
04:57PM 41.1789 -117.9772 96° East 444 511 33,000  Level Salt Lake Center
04:58PM 41.1647 -117.8225 97° East 442 509 33,000  Level Salt Lake Center
04:59PM 41.1503 -117.6658 97° East 443 510 33,000  Level Salt Lake Center
05:00PM 41.1336 -117.4844 97° East 443 510 33,000  Level Salt Lake Center
05:01PM 41.1192 -117.3289 97° East 443 510 33,000  Level Salt Lake Center
05:03PM 41.1022 -117.1475 97° East 443 510 33,000  Level Salt Lake Center
05:04PM 41.0878 -116.9919 97° East 443 510 33,000  Level Salt Lake Center
05:05PM 41.0719 -116.8356 98° East 444 511 33,000  Level Salt Lake Center
05:06PM 41.0544 -116.6539 97° East 443 510 33,000  Level Salt Lake Center
05:07PM 41.0392 -116.4983 97° East 443 510 33,000  Level Salt Lake Center
05:08PM 41.0206 -116.3167 98° East 444 511 33,000  Level Salt Lake Center
05:09PM 41.0039 -116.1600 98° East 446 513 33,000  Level Salt Lake Center
05:10PM 40.9867 -116.0042 98° East 446 513 33,000  Level Salt Lake Center
05:11PM 40.9672 -115.8225 98° East 445 512 33,000  Level Salt Lake Center
05:12PM 40.9508 -115.6669 98° East 445 512 33,000  Level Salt Lake Center
05:13PM 40.9147 -115.5186 108° East 446 513 33,000  Level Salt Lake Center
05:14PM 40.8208 -115.3800 132° Southeast 450 518 33,000  Level Salt Lake Center
05:15PM 40.7386 -115.2653 133° Southeast 449 517 33,000  Level Salt Lake Center
05:16PM 40.6692 -115.1083 120° Southeast 444 511 33,000  Level Salt Lake Center
05:17PM 40.6661 -114.9525 91° East 446 513 33,000  Level Salt Lake Center
05:18PM 40.6781 -114.7803 85° East 444 511 33,000  Level Salt Lake Center
05:19PM 40.6869 -114.6183 86° East 444 511 33,000  Level Salt Lake Center
05:20PM 40.6956 -114.4567 86° East 444 511 33,000  Level Salt Lake Center
05:21PM 40.7028 -114.2939 87° East 446 513 33,000 -1,080 Level Salt Lake Center
05:22PM 40.7097 -114.1283 87° East 454 522 30,800 -2,400 Descending Salt Lake Center
05:23PM 40.7183 -113.9342 87° East 444 511 28,200 -2,280 Descending Salt Lake Center
05:24PM 40.7244 -113.7831 87° East 419 482 26,200 -1,980 Descending Salt Lake Center
05:25PM 40.7267 -113.6342 89° East 409 471 24,200 -1,980 Descending Salt Lake Center
05:26PM 40.7261 -113.4897 90° East 398 458 22,200 -1,920 Descending Salt Lake Center
05:27PM 40.7253 -113.3472 90° East 395 455 20,300 -1,680 Descending Salt Lake Center
05:28PM 40.7247 -113.2119 90° East 376 433 18,800 -1,080 Descending Salt Lake Center
05:29PM 40.7247 -113.0803 90° East 363 418 18,100 -1,080 Descending Salt Lake Center
05:30PM 40.7283 -112.9836 87° East 359 413 17,100 -1,140 Descending Salt Lake Center
05:30PM 40.7294 -112.9439 88° East 356 410 17,100 -180 Level Salt Lake Center
05:31PM 40.7261 -112.8122 92° East 355 409 16,900 -600 Descending Salt Lake Center
05:32PM 40.7242 -112.6661 91° East 402 463 15,900 -1,200 Descending Salt Lake Center
05:33PM 40.7261 -112.5186 89° East 401 461 14,500 -1,440 Descending Salt Lake Center
05:34PM 40.7472 -112.3814 78° East 383 441 13,000 -1,260 Descending Salt Lake Center
05:35PM 40.7653 -112.2425 80° East 350 403 12,000 -540 Descending Salt Lake Center
05:36PM 40.7575 -112.1461 96° East 259 298 12,000 -420 Level Salt Lake Center
05:37PM 40.7036 -112.0908 142° Southeast 249 287 11,200 -900 Descending Salt Lake Center
05:37PM 40.6903 -112.0847 161° South 250 288 10,900 -1,500 Descending Salt Lake Center
05:38PM 40.6353 -112.0828 178° South 246 283 9,700 -1,380 Descending Salt Lake Center
05:39PM 40.6211 -112.0767 162° South 248 285 9,500 -600 Descending Salt Lake Center
05:39PM 40.5694 -112.0653 170° South 232 267 9,100 -540 Descending Salt Lake Center
05:40PM 40.5658 -112.0503 108° East 231 266 9,000 -900 Descending Salt Lake Center
05:40PM 40.5775 -111.9864 76° East 231 266 8,200 -1,020 Descending Salt Lake Center
05:41PM 40.5861 -111.9778 37° Northeast 231 266 8,000 -1,020 Descending Salt Lake Center
05:41PM 40.6372 -111.9831 356° North 219 252 7,200 -1,200 Descending Salt Lake Center
05:42PM 40.6578 -111.9825 North 211 243 6,800 -1,320 Descending Salt Lake Center